Port Moresby Jacksons International Airport

METAR AYPY TAF AYPY
31 °C
°C
-
°C
35m
Age
01:35:21
LT
00:35
UTC
0 ft

1,000

2,000

3,000

4,000

5,000

FEW 1,000
SCT 2,000
BKN 4,000
VFR
<?= Yii::t('app', 'Wind direction') ?> <?= Yii::t('app', 'of'); ?>
330°
18:40
Sunset
79%
Humidity
Wind shear
Closed/Snow
RWY visual range
RWY condition
Vert. visibility
Min. visibility
CAVOK
Trend
Correction
Special report
1007 hPa
QNH
METAR AYPY 280000Z 33010KT 9999 FEW010 SCT020 BKN040 31/27 Q1007
Broken clouds
0 kt
0 kt
10:00
VFR
5 kt
11:00
VFR
5 kt
12:00
VFR
5 kt
13:00
MVFR
5 kt
14:00
MVFR
5 kt
15:00
MVFR
5 kt
16:00
MVFR
5 kt
10 km+
Visibility
4,000 ft
Ceiling
10 kt
Wind
metar-taf.com/AYPY

Metar-Taf.com

Visual decoder

We and third parties follow your internet behavior on our website with cookies. If you continue, we assume you agree with our cookie policy.